sensor_id;sensor_type;location;lat;lon;timestamp;P1;durP1;ratioP1;P2;durP2;ratioP2
28028;SDS011;15345;59.364;18.016;2023-06-22T00:01:10;7.18;;;6.68;;
28028;SDS011;15345;59.364;18.016;2023-06-22T00:02:29;5.90;;;5.43;;
28028;SDS011;15345;59.364;18.016;2023-06-22T00:03:48;6.80;;;6.13;;
28028;SDS011;15345;59.364;18.016;2023-06-22T00:05:07;6.97;;;6.32;;
28028;SDS011;15345;59.364;18.016;2023-06-22T00:06:26;6.15;;;5.75;;
28028;SDS011;15345;59.364;18.016;2023-06-22T00:07:45;6.60;;;6.18;;
28028;SDS011;15345;59.364;18.016;2023-06-22T00:09:04;6.43;;;6.03;;
28028;SDS011;15345;59.364;18.016;2023-06-22T00:10:25;6.78;;;6.28;;
28028;SDS011;15345;59.364;18.016;2023-06-22T00:11:44;6.90;;;6.32;;
28028;SDS011;15345;59.364;18.016;2023-06-22T00:13:03;7.00;;;6.40;;
28028;SDS011;15345;59.364;18.016;2023-06-22T00:14:22;6.85;;;6.45;;
28028;SDS011;15345;59.364;18.016;2023-06-22T00:15:41;7.50;;;6.80;;
28028;SDS011;15345;59.364;18.016;2023-06-22T00:17:00;7.65;;;7.05;;
28028;SDS011;15345;59.364;18.016;2023-06-22T00:18:19;7.20;;;6.60;;
28028;SDS011;15345;59.364;18.016;2023-06-22T00:19:38;7.45;;;6.85;;
28028;SDS011;15345;59.364;18.016;2023-06-22T00:20:59;8.07;;;7.57;;
28028;SDS011;15345;59.364;18.016;2023-06-22T00:22:18;6.78;;;6.25;;
28028;SDS011;15345;59.364;18.016;2023-06-22T00:23:40;7.63;;;7.13;;
28028;SDS011;15345;59.364;18.016;2023-06-22T00:25:00;7.03;;;6.63;;
28028;SDS011;15345;59.364;18.016;2023-06-22T00:26:19;7.45;;;6.85;;
28028;SDS011;15345;59.364;18.016;2023-06-22T00:27:38;7.80;;;7.07;;
28028;SDS011;15345;59.364;18.016;2023-06-22T00:28:57;7.63;;;7.05;;
28028;SDS011;15345;59.364;18.016;2023-06-22T00:30:17;7.63;;;7.13;;
28028;SDS011;15345;59.364;18.016;2023-06-22T00:31:36;7.60;;;7.00;;
28028;SDS011;15345;59.364;18.016;2023-06-22T00:32:55;6.90;;;6.40;;
28028;SDS011;15345;59.364;18.016;2023-06-22T00:34:14;6.70;;;6.30;;
28028;SDS011;15345;59.364;18.016;2023-06-22T00:35:34;7.55;;;6.95;;
28028;SDS011;15345;59.364;18.016;2023-06-22T00:36:54;7.55;;;6.97;;
28028;SDS011;15345;59.364;18.016;2023-06-22T00:38:13;7.22;;;6.72;;
28028;SDS011;15345;59.364;18.016;2023-06-22T00:39:32;7.28;;;6.63;;
28028;SDS011;15345;59.364;18.016;2023-06-22T00:40:52;7.50;;;7.05;;
28028;SDS011;15345;59.364;18.016;2023-06-22T00:42:11;7.75;;;7.15;;
28028;SDS011;15345;59.364;18.016;2023-06-22T00:43:30;7.35;;;6.75;;
28028;SDS011;15345;59.364;18.016;2023-06-22T00:44:49;7.53;;;6.93;;
28028;SDS011;15345;59.364;18.016;2023-06-22T00:46:08;7.80;;;7.10;;
28028;SDS011;15345;59.364;18.016;2023-06-22T00:47:27;7.10;;;6.60;;
28028;SDS011;15345;59.364;18.016;2023-06-22T00:48:46;7.45;;;6.82;;
28028;SDS011;15345;59.364;18.016;2023-06-22T00:50:06;7.10;;;6.63;;
28028;SDS011;15345;59.364;18.016;2023-06-22T00:51:25;7.93;;;7.22;;
28028;SDS011;15345;59.364;18.016;2023-06-22T00:52:45;7.70;;;7.20;;
28028;SDS011;15345;59.364;18.016;2023-06-22T00:54:05;7.25;;;6.60;;
28028;SDS011;15345;59.364;18.016;2023-06-22T00:55:25;8.10;;;7.40;;
28028;SDS011;15345;59.364;18.016;2023-06-22T00:56:44;6.88;;;6.35;;
28028;SDS011;15345;59.364;18.016;2023-06-22T00:58:04;7.28;;;6.78;;
28028;SDS011;15345;59.364;18.016;2023-06-22T00:59:26;7.45;;;7.00;;
28028;SDS011;15345;59.364;18.016;2023-06-22T01:00:45;8.13;;;7.53;;
28028;SDS011;15345;59.364;18.016;2023-06-22T01:02:05;7.78;;;7.28;;
28028;SDS011;15345;59.364;18.016;2023-06-22T01:03:24;8.30;;;7.65;;
28028;SDS011;15345;59.364;18.016;2023-06-22T01:04:43;7.85;;;7.35;;
28028;SDS011;15345;59.364;18.016;2023-06-22T01:06:06;8.90;;;8.10;;
28028;SDS011;15345;59.364;18.016;2023-06-22T01:07:30;8.20;;;7.60;;
28028;SDS011;15345;59.364;18.016;2023-06-22T01:09:34;8.77;;;8.18;;
28028;SDS011;15345;59.364;18.016;2023-06-22T01:12:05;8.95;;;8.25;;
28028;SDS011;15345;59.364;18.016;2023-06-22T01:13:29;8.70;;;8.00;;
28028;SDS011;15345;59.364;18.016;2023-06-22T01:15:33;7.97;;;7.47;;
28028;SDS011;15345;59.364;18.016;2023-06-22T01:16:33;9.48;;;8.35;;
28028;SDS011;15345;59.364;18.016;2023-06-22T01:17:52;9.63;;;8.80;;
28028;SDS011;15345;59.364;18.016;2023-06-22T01:19:29;9.25;;;8.48;;
28028;SDS011;15345;59.364;18.016;2023-06-22T01:20:54;8.77;;;8.02;;
28028;SDS011;15345;59.364;18.016;2023-06-22T01:22:17;8.60;;;7.90;;
28028;SDS011;15345;59.364;18.016;2023-06-22T01:25:07;9.23;;;8.57;;
28028;SDS011;15345;59.364;18.016;2023-06-22T01:26:31;9.38;;;8.48;;
28028;SDS011;15345;59.364;18.016;2023-06-22T01:29:16;9.75;;;8.77;;
28028;SDS011;15345;59.364;18.016;2023-06-22T01:30:36;9.73;;;9.02;;
28028;SDS011;15345;59.364;18.016;2023-06-22T01:31:58;9.20;;;8.50;;
28028;SDS011;15345;59.364;18.016;2023-06-22T01:33:18;8.90;;;8.25;;
28028;SDS011;15345;59.364;18.016;2023-06-22T01:34:37;8.98;;;8.20;;
28028;SDS011;15345;59.364;18.016;2023-06-22T01:35:58;8.32;;;7.72;;
28028;SDS011;15345;59.364;18.016;2023-06-22T01:37:18;9.43;;;8.63;;
28028;SDS011;15345;59.364;18.016;2023-06-22T01:38:37;10.23;;;9.18;;
28028;SDS011;15345;59.364;18.016;2023-06-22T01:39:57;9.88;;;9.07;;
28028;SDS011;15345;59.364;18.016;2023-06-22T01:41:17;9.18;;;8.55;;
28028;SDS011;15345;59.364;18.016;2023-06-22T01:42:36;9.57;;;8.77;;
28028;SDS011;15345;59.364;18.016;2023-06-22T01:43:56;10.02;;;9.32;;
28028;SDS011;15345;59.364;18.016;2023-06-22T01:45:15;10.60;;;9.70;;
28028;SDS011;15345;59.364;18.016;2023-06-22T01:46:35;9.88;;;9.18;;
28028;SDS011;15345;59.364;18.016;2023-06-22T01:47:54;10.35;;;9.52;;
28028;SDS011;15345;59.364;18.016;2023-06-22T01:49:14;10.43;;;9.63;;
28028;SDS011;15345;59.364;18.016;2023-06-22T01:50:34;10.07;;;9.18;;
28028;SDS011;15345;59.364;18.016;2023-06-22T01:51:53;10.15;;;9.45;;
28028;SDS011;15345;59.364;18.016;2023-06-22T01:53:13;10.38;;;9.43;;
28028;SDS011;15345;59.364;18.016;2023-06-22T01:54:32;10.65;;;9.70;;
28028;SDS011;15345;59.364;18.016;2023-06-22T01:55:51;11.30;;;10.30;;
28028;SDS011;15345;59.364;18.016;2023-06-22T01:57:10;10.10;;;9.40;;
28028;SDS011;15345;59.364;18.016;2023-06-22T01:58:29;10.88;;;9.98;;
28028;SDS011;15345;59.364;18.016;2023-06-22T02:01:14;10.82;;;10.02;;
28028;SDS011;15345;59.364;18.016;2023-06-22T02:02:38;12.87;;;10.97;;
28028;SDS011;15345;59.364;18.016;2023-06-22T02:04:03;11.05;;;10.05;;
28028;SDS011;15345;59.364;18.016;2023-06-22T02:05:24;11.00;;;10.15;;
28028;SDS011;15345;59.364;18.016;2023-06-22T02:06:45;12.23;;;11.25;;
28028;SDS011;15345;59.364;18.016;2023-06-22T02:08:07;11.95;;;10.95;;
28028;SDS011;15345;59.364;18.016;2023-06-22T02:09:29;12.30;;;11.15;;
28028;SDS011;15345;59.364;18.016;2023-06-22T02:10:48;12.23;;;11.23;;
28028;SDS011;15345;59.364;18.016;2023-06-22T02:12:08;12.02;;;11.13;;
28028;SDS011;15345;59.364;18.016;2023-06-22T02:13:27;11.68;;;10.80;;
28028;SDS011;15345;59.364;18.016;2023-06-22T02:14:46;11.60;;;10.82;;
28028;SDS011;15345;59.364;18.016;2023-06-22T02:16:06;11.63;;;10.73;;
28028;SDS011;15345;59.364;18.016;2023-06-22T02:17:25;12.50;;;11.50;;
28028;SDS011;15345;59.364;18.016;2023-06-22T02:18:47;11.75;;;10.85;;
28028;SDS011;15345;59.364;18.016;2023-06-22T02:20:11;11.30;;;10.50;;
28028;SDS011;15345;59.364;18.016;2023-06-22T02:21:30;11.40;;;10.60;;
28028;SDS011;15345;59.364;18.016;2023-06-22T02:22:49;12.52;;;11.18;;
28028;SDS011;15345;59.364;18.016;2023-06-22T02:24:08;11.68;;;10.57;;
28028;SDS011;15345;59.364;18.016;2023-06-22T02:25:27;11.88;;;10.80;;
28028;SDS011;15345;59.364;18.016;2023-06-22T02:26:46;11.82;;;10.90;;
28028;SDS011;15345;59.364;18.016;2023-06-22T02:28:05;11.15;;;10.18;;
28028;SDS011;15345;59.364;18.016;2023-06-22T02:29:24;12.25;;;11.20;;
28028;SDS011;15345;59.364;18.016;2023-06-22T02:30:43;10.90;;;10.20;;
28028;SDS011;15345;59.364;18.016;2023-06-22T02:32:02;12.27;;;11.07;;
28028;SDS011;15345;59.364;18.016;2023-06-22T02:33:22;12.00;;;11.10;;
28028;SDS011;15345;59.364;18.016;2023-06-22T02:34:42;10.82;;;10.02;;
28028;SDS011;15345;59.364;18.016;2023-06-22T02:36:01;11.15;;;10.23;;
28028;SDS011;15345;59.364;18.016;2023-06-22T02:37:23;11.93;;;11.07;;
28028;SDS011;15345;59.364;18.016;2023-06-22T02:38:43;11.30;;;10.38;;
28028;SDS011;15345;59.364;18.016;2023-06-22T02:40:10;14.80;;;11.10;;
28028;SDS011;15345;59.364;18.016;2023-06-22T02:41:29;11.05;;;10.25;;
28028;SDS011;15345;59.364;18.016;2023-06-22T02:42:48;11.38;;;10.57;;
28028;SDS011;15345;59.364;18.016;2023-06-22T02:44:07;11.40;;;10.50;;
28028;SDS011;15345;59.364;18.016;2023-06-22T02:45:26;10.85;;;9.85;;
28028;SDS011;15345;59.364;18.016;2023-06-22T02:46:45;11.30;;;10.50;;
28028;SDS011;15345;59.364;18.016;2023-06-22T02:48:04;10.73;;;9.93;;
28028;SDS011;15345;59.364;18.016;2023-06-22T02:49:23;11.27;;;10.40;;
28028;SDS011;15345;59.364;18.016;2023-06-22T02:50:42;10.10;;;9.40;;
28028;SDS011;15345;59.364;18.016;2023-06-22T02:52:01;11.73;;;10.75;;
28028;SDS011;15345;59.364;18.016;2023-06-22T02:53:20;11.02;;;10.10;;
28028;SDS011;15345;59.364;18.016;2023-06-22T02:54:39;11.55;;;10.57;;
28028;SDS011;15345;59.364;18.016;2023-06-22T02:55:58;10.27;;;9.57;;
28028;SDS011;15345;59.364;18.016;2023-06-22T02:57:20;10.63;;;9.82;;
28028;SDS011;15345;59.364;18.016;2023-06-22T02:58:39;10.88;;;9.98;;
28028;SDS011;15345;59.364;18.016;2023-06-22T02:59:57;11.65;;;10.65;;
28028;SDS011;15345;59.364;18.016;2023-06-22T03:01:16;10.57;;;9.57;;
28028;SDS011;15345;59.364;18.016;2023-06-22T03:02:41;10.60;;;9.57;;
28028;SDS011;15345;59.364;18.016;2023-06-22T03:04:00;11.07;;;10.07;;
28028;SDS011;15345;59.364;18.016;2023-06-22T03:05:19;10.75;;;9.95;;
28028;SDS011;15345;59.364;18.016;2023-06-22T03:06:38;10.95;;;10.15;;
28028;SDS011;15345;59.364;18.016;2023-06-22T03:07:59;10.85;;;9.95;;
28028;SDS011;15345;59.364;18.016;2023-06-22T03:09:18;11.48;;;10.48;;
28028;SDS011;15345;59.364;18.016;2023-06-22T03:10:37;10.35;;;9.60;;
28028;SDS011;15345;59.364;18.016;2023-06-22T03:11:56;10.82;;;10.02;;
28028;SDS011;15345;59.364;18.016;2023-06-22T03:13:15;11.32;;;10.43;;
28028;SDS011;15345;59.364;18.016;2023-06-22T03:14:35;10.32;;;9.35;;
28028;SDS011;15345;59.364;18.016;2023-06-22T03:15:54;10.63;;;9.85;;
28028;SDS011;15345;59.364;18.016;2023-06-22T03:17:13;10.90;;;10.00;;
28028;SDS011;15345;59.364;18.016;2023-06-22T03:18:32;11.20;;;10.25;;
28028;SDS011;15345;59.364;18.016;2023-06-22T03:19:51;10.93;;;9.95;;
28028;SDS011;15345;59.364;18.016;2023-06-22T03:21:10;10.60;;;9.80;;
28028;SDS011;15345;59.364;18.016;2023-06-22T03:22:29;10.98;;;10.10;;
28028;SDS011;15345;59.364;18.016;2023-06-22T03:23:48;10.38;;;9.63;;
28028;SDS011;15345;59.364;18.016;2023-06-22T03:25:10;9.98;;;9.30;;
28028;SDS011;15345;59.364;18.016;2023-06-22T03:26:29;11.15;;;10.25;;
28028;SDS011;15345;59.364;18.016;2023-06-22T03:27:48;11.02;;;10.32;;
28028;SDS011;15345;59.364;18.016;2023-06-22T03:29:07;10.30;;;9.57;;
28028;SDS011;15345;59.364;18.016;2023-06-22T03:30:26;10.52;;;9.57;;
28028;SDS011;15345;59.364;18.016;2023-06-22T03:31:45;10.38;;;9.52;;
28028;SDS011;15345;59.364;18.016;2023-06-22T03:33:04;10.10;;;9.50;;
28028;SDS011;15345;59.364;18.016;2023-06-22T03:34:23;10.52;;;9.80;;
28028;SDS011;15345;59.364;18.016;2023-06-22T03:35:42;11.50;;;10.55;;
28028;SDS011;15345;59.364;18.016;2023-06-22T03:37:01;10.73;;;9.98;;
28028;SDS011;15345;59.364;18.016;2023-06-22T03:38:20;10.90;;;10.05;;
28028;SDS011;15345;59.364;18.016;2023-06-22T03:39:38;10.82;;;9.98;;
28028;SDS011;15345;59.364;18.016;2023-06-22T03:40:57;12.30;;;11.00;;
28028;SDS011;15345;59.364;18.016;2023-06-22T03:42:16;10.75;;;9.95;;
28028;SDS011;15345;59.364;18.016;2023-06-22T03:43:35;10.82;;;9.90;;
28028;SDS011;15345;59.364;18.016;2023-06-22T03:44:54;11.00;;;10.20;;
28028;SDS011;15345;59.364;18.016;2023-06-22T03:46:13;11.43;;;10.60;;
28028;SDS011;15345;59.364;18.016;2023-06-22T03:47:32;11.35;;;10.40;;
28028;SDS011;15345;59.364;18.016;2023-06-22T03:48:51;10.55;;;9.85;;
28028;SDS011;15345;59.364;18.016;2023-06-22T03:50:10;11.52;;;10.43;;
28028;SDS011;15345;59.364;18.016;2023-06-22T03:51:30;11.18;;;10.05;;
28028;SDS011;15345;59.364;18.016;2023-06-22T03:52:49;11.00;;;10.30;;
28028;SDS011;15345;59.364;18.016;2023-06-22T03:54:11;11.90;;;10.20;;
28028;SDS011;15345;59.364;18.016;2023-06-22T03:55:30;11.10;;;10.30;;
28028;SDS011;15345;59.364;18.016;2023-06-22T03:56:49;10.45;;;9.75;;
28028;SDS011;15345;59.364;18.016;2023-06-22T03:58:07;10.93;;;10.13;;
28028;SDS011;15345;59.364;18.016;2023-06-22T03:59:28;11.27;;;10.32;;
28028;SDS011;15345;59.364;18.016;2023-06-22T04:00:50;10.85;;;9.90;;
28028;SDS011;15345;59.364;18.016;2023-06-22T04:02:09;10.90;;;10.07;;
28028;SDS011;15345;59.364;18.016;2023-06-22T04:03:28;10.52;;;9.65;;
28028;SDS011;15345;59.364;18.016;2023-06-22T04:04:47;11.32;;;10.20;;
28028;SDS011;15345;59.364;18.016;2023-06-22T04:06:06;10.23;;;9.48;;
28028;SDS011;15345;59.364;18.016;2023-06-22T04:07:26;10.50;;;9.70;;
28028;SDS011;15345;59.364;18.016;2023-06-22T04:08:46;10.45;;;9.65;;
28028;SDS011;15345;59.364;18.016;2023-06-22T04:10:09;10.57;;;9.85;;
28028;SDS011;15345;59.364;18.016;2023-06-22T04:11:29;10.23;;;9.32;;
28028;SDS011;15345;59.364;18.016;2023-06-22T04:12:48;10.75;;;9.88;;
28028;SDS011;15345;59.364;18.016;2023-06-22T04:14:07;10.20;;;9.52;;
28028;SDS011;15345;59.364;18.016;2023-06-22T04:15:26;9.70;;;9.10;;
28028;SDS011;15345;59.364;18.016;2023-06-22T04:16:45;10.68;;;9.98;;
28028;SDS011;15345;59.364;18.016;2023-06-22T04:18:04;10.82;;;9.90;;
28028;SDS011;15345;59.364;18.016;2023-06-22T04:19:23;10.02;;;8.88;;
28028;SDS011;15345;59.364;18.016;2023-06-22T04:20:42;10.18;;;9.38;;
28028;SDS011;15345;59.364;18.016;2023-06-22T04:22:03;10.20;;;9.38;;
28028;SDS011;15345;59.364;18.016;2023-06-22T04:23:22;10.60;;;9.70;;
28028;SDS011;15345;59.364;18.016;2023-06-22T04:24:41;10.18;;;9.48;;
28028;SDS011;15345;59.364;18.016;2023-06-22T04:26:00;10.32;;;9.20;;
28028;SDS011;15345;59.364;18.016;2023-06-22T04:27:19;10.43;;;9.60;;
28028;SDS011;15345;59.364;18.016;2023-06-22T04:28:38;10.30;;;9.55;;
28028;SDS011;15345;59.364;18.016;2023-06-22T04:29:57;9.30;;;8.60;;
28028;SDS011;15345;59.364;18.016;2023-06-22T04:31:19;9.70;;;9.00;;
28028;SDS011;15345;59.364;18.016;2023-06-22T04:32:38;9.40;;;8.75;;
28028;SDS011;15345;59.364;18.016;2023-06-22T04:33:59;10.00;;;9.13;;
28028;SDS011;15345;59.364;18.016;2023-06-22T04:35:24;9.82;;;9.00;;
28028;SDS011;15345;59.364;18.016;2023-06-22T04:36:43;10.10;;;9.18;;
28028;SDS011;15345;59.364;18.016;2023-06-22T04:38:03;10.25;;;9.35;;
28028;SDS011;15345;59.364;18.016;2023-06-22T04:39:22;9.45;;;8.82;;
28028;SDS011;15345;59.364;18.016;2023-06-22T04:40:42;10.13;;;9.32;;
28028;SDS011;15345;59.364;18.016;2023-06-22T04:42:01;10.00;;;9.30;;
28028;SDS011;15345;59.364;18.016;2023-06-22T04:43:21;9.15;;;8.55;;
28028;SDS011;15345;59.364;18.016;2023-06-22T04:44:40;9.85;;;8.98;;
28028;SDS011;15345;59.364;18.016;2023-06-22T04:46:00;10.45;;;8.10;;
28028;SDS011;15345;59.364;18.016;2023-06-22T04:47:22;8.55;;;8.05;;
28028;SDS011;15345;59.364;18.016;2023-06-22T04:52:34;9.07;;;8.48;;
28028;SDS011;15345;59.364;18.016;2023-06-22T04:53:56;8.57;;;8.02;;
28028;SDS011;15345;59.364;18.016;2023-06-22T04:55:20;8.95;;;8.07;;
28028;SDS011;15345;59.364;18.016;2023-06-22T04:56:39;8.68;;;8.10;;
28028;SDS011;15345;59.364;18.016;2023-06-22T04:57:59;9.57;;;8.73;;
28028;SDS011;15345;59.364;18.016;2023-06-22T04:59:23;9.68;;;8.93;;
28028;SDS011;15345;59.364;18.016;2023-06-22T05:00:47;9.30;;;8.55;;
28028;SDS011;15345;59.364;18.016;2023-06-22T05:02:06;9.18;;;8.27;;
28028;SDS011;15345;59.364;18.016;2023-06-22T05:03:25;9.65;;;8.75;;
28028;SDS011;15345;59.364;18.016;2023-06-22T05:04:44;8.82;;;7.90;;
28028;SDS011;15345;59.364;18.016;2023-06-22T05:06:04;12.65;;;8.57;;
28028;SDS011;15345;59.364;18.016;2023-06-22T05:07:23;8.68;;;7.60;;
28028;SDS011;15345;59.364;18.016;2023-06-22T05:08:44;8.07;;;7.53;;
28028;SDS011;15345;59.364;18.016;2023-06-22T05:10:03;9.52;;;8.68;;
28028;SDS011;15345;59.364;18.016;2023-06-22T05:11:27;9.30;;;8.02;;
28028;SDS011;15345;59.364;18.016;2023-06-22T05:12:46;8.25;;;7.55;;
28028;SDS011;15345;59.364;18.016;2023-06-22T05:14:05;8.45;;;7.65;;
28028;SDS011;15345;59.364;18.016;2023-06-22T05:15:24;8.20;;;7.45;;
28028;SDS011;15345;59.364;18.016;2023-06-22T05:16:46;8.13;;;7.40;;
28028;SDS011;15345;59.364;18.016;2023-06-22T05:18:05;8.80;;;8.13;;
28028;SDS011;15345;59.364;18.016;2023-06-22T05:19:25;8.77;;;8.18;;
28028;SDS011;15345;59.364;18.016;2023-06-22T05:20:49;8.15;;;7.60;;
28028;SDS011;15345;59.364;18.016;2023-06-22T05:22:09;8.98;;;8.38;;
28028;SDS011;15345;59.364;18.016;2023-06-22T05:23:28;9.07;;;8.20;;
28028;SDS011;15345;59.364;18.016;2023-06-22T05:24:47;8.30;;;7.45;;
28028;SDS011;15345;59.364;18.016;2023-06-22T05:26:06;8.55;;;7.85;;
28028;SDS011;15345;59.364;18.016;2023-06-22T05:27:28;8.55;;;7.70;;
28028;SDS011;15345;59.364;18.016;2023-06-22T05:28:46;8.80;;;7.90;;
28028;SDS011;15345;59.364;18.016;2023-06-22T05:30:07;8.30;;;7.60;;
28028;SDS011;15345;59.364;18.016;2023-06-22T05:31:26;8.07;;;7.47;;
28028;SDS011;15345;59.364;18.016;2023-06-22T05:32:46;7.97;;;7.13;;
28028;SDS011;15345;59.364;18.016;2023-06-22T05:34:05;7.85;;;7.35;;
28028;SDS011;15345;59.364;18.016;2023-06-22T05:35:24;8.05;;;6.70;;
28028;SDS011;15345;59.364;18.016;2023-06-22T05:36:43;7.70;;;6.93;;
28028;SDS011;15345;59.364;18.016;2023-06-22T05:38:02;8.18;;;7.57;;
28028;SDS011;15345;59.364;18.016;2023-06-22T05:39:22;8.02;;;7.40;;
28028;SDS011;15345;59.364;18.016;2023-06-22T05:40:40;7.90;;;7.20;;
28028;SDS011;15345;59.364;18.016;2023-06-22T05:41:59;8.15;;;7.55;;
28028;SDS011;15345;59.364;18.016;2023-06-22T05:43:18;7.80;;;7.30;;
28028;SDS011;15345;59.364;18.016;2023-06-22T05:44:37;11.52;;;7.13;;
28028;SDS011;15345;59.364;18.016;2023-06-22T05:45:57;7.10;;;6.60;;
28028;SDS011;15345;59.364;18.016;2023-06-22T05:47:18;7.25;;;6.75;;
28028;SDS011;15345;59.364;18.016;2023-06-22T05:48:37;6.85;;;6.30;;
28028;SDS011;15345;59.364;18.016;2023-06-22T05:49:56;6.70;;;6.20;;
28028;SDS011;15345;59.364;18.016;2023-06-22T05:51:18;6.68;;;6.18;;
28028;SDS011;15345;59.364;18.016;2023-06-22T05:52:37;6.95;;;6.35;;
28028;SDS011;15345;59.364;18.016;2023-06-22T05:53:56;6.82;;;6.40;;
28028;SDS011;15345;59.364;18.016;2023-06-22T05:55:15;6.50;;;6.10;;
28028;SDS011;15345;59.364;18.016;2023-06-22T05:56:37;6.28;;;5.88;;
28028;SDS011;15345;59.364;18.016;2023-06-22T05:57:56;6.55;;;6.13;;
28028;SDS011;15345;59.364;18.016;2023-06-22T05:59:15;6.60;;;6.10;;
28028;SDS011;15345;59.364;18.016;2023-06-22T06:00:34;7.10;;;6.35;;
28028;SDS011;15345;59.364;18.016;2023-06-22T06:01:53;6.75;;;6.35;;
28028;SDS011;15345;59.364;18.016;2023-06-22T06:03:12;6.45;;;6.05;;
28028;SDS011;15345;59.364;18.016;2023-06-22T06:04:35;9.63;;;6.68;;
28028;SDS011;15345;59.364;18.016;2023-06-22T06:05:56;7.82;;;6.40;;
28028;SDS011;15345;59.364;18.016;2023-06-22T06:07:15;7.18;;;6.53;;
28028;SDS011;15345;59.364;18.016;2023-06-22T06:08:34;6.25;;;5.75;;
28028;SDS011;15345;59.364;18.016;2023-06-22T06:09:53;6.60;;;6.10;;
28028;SDS011;15345;59.364;18.016;2023-06-22T06:11:12;6.93;;;6.43;;
28028;SDS011;15345;59.364;18.016;2023-06-22T06:12:31;6.60;;;5.88;;
28028;SDS011;15345;59.364;18.016;2023-06-22T06:13:50;6.78;;;6.22;;
28028;SDS011;15345;59.364;18.016;2023-06-22T06:15:09;7.00;;;6.50;;
28028;SDS011;15345;59.364;18.016;2023-06-22T06:16:29;7.45;;;6.85;;
28028;SDS011;15345;59.364;18.016;2023-06-22T06:17:51;6.80;;;6.30;;
28028;SDS011;15345;59.364;18.016;2023-06-22T06:19:10;7.25;;;6.85;;
28028;SDS011;15345;59.364;18.016;2023-06-22T06:20:29;7.32;;;6.90;;
28028;SDS011;15345;59.364;18.016;2023-06-22T06:21:49;7.85;;;7.15;;
28028;SDS011;15345;59.364;18.016;2023-06-22T06:23:08;8.32;;;7.45;;
28028;SDS011;15345;59.364;18.016;2023-06-22T06:24:27;7.30;;;6.75;;
28028;SDS011;15345;59.364;18.016;2023-06-22T06:25:46;6.82;;;6.13;;
28028;SDS011;15345;59.364;18.016;2023-06-22T06:27:05;7.38;;;6.53;;
28028;SDS011;15345;59.364;18.016;2023-06-22T06:28:24;9.05;;;6.60;;
28028;SDS011;15345;59.364;18.016;2023-06-22T06:29:44;8.95;;;6.40;;
28028;SDS011;15345;59.364;18.016;2023-06-22T06:31:06;11.98;;;6.45;;
28028;SDS011;15345;59.364;18.016;2023-06-22T06:32:27;8.45;;;6.22;;
28028;SDS011;15345;59.364;18.016;2023-06-22T06:33:46;6.68;;;6.07;;
28028;SDS011;15345;59.364;18.016;2023-06-22T06:35:06;6.70;;;6.10;;
28028;SDS011;15345;59.364;18.016;2023-06-22T06:36:25;7.13;;;6.32;;
28028;SDS011;15345;59.364;18.016;2023-06-22T06:37:46;6.25;;;5.82;;
28028;SDS011;15345;59.364;18.016;2023-06-22T06:39:05;7.65;;;5.43;;
28028;SDS011;15345;59.364;18.016;2023-06-22T06:40:24;7.13;;;5.82;;
28028;SDS011;15345;59.364;18.016;2023-06-22T06:41:43;6.05;;;5.40;;
28028;SDS011;15345;59.364;18.016;2023-06-22T06:43:02;8.02;;;5.70;;
28028;SDS011;15345;59.364;18.016;2023-06-22T06:44:21;6.65;;;6.05;;
28028;SDS011;15345;59.364;18.016;2023-06-22T06:45:40;6.72;;;5.38;;
28028;SDS011;15345;59.364;18.016;2023-06-22T06:46:59;5.85;;;5.25;;
28028;SDS011;15345;59.364;18.016;2023-06-22T06:48:18;5.93;;;5.35;;
28028;SDS011;15345;59.364;18.016;2023-06-22T06:49:37;7.18;;;5.47;;
28028;SDS011;15345;59.364;18.016;2023-06-22T06:50:59;5.80;;;5.28;;
28028;SDS011;15345;59.364;18.016;2023-06-22T06:52:18;6.45;;;5.25;;
28028;SDS011;15345;59.364;18.016;2023-06-22T06:53:38;6.00;;;5.25;;
28028;SDS011;15345;59.364;18.016;2023-06-22T06:54:57;11.73;;;5.18;;
28028;SDS011;15345;59.364;18.016;2023-06-22T06:56:16;13.00;;;5.80;;
28028;SDS011;15345;59.364;18.016;2023-06-22T06:57:35;7.75;;;5.20;;
28028;SDS011;15345;59.364;18.016;2023-06-22T06:58:56;7.35;;;5.60;;
28028;SDS011;15345;59.364;18.016;2023-06-22T07:00:15;7.45;;;5.10;;
28028;SDS011;15345;59.364;18.016;2023-06-22T07:01:34;5.47;;;4.75;;
28028;SDS011;15345;59.364;18.016;2023-06-22T07:02:54;6.13;;;5.38;;
28028;SDS011;15345;59.364;18.016;2023-06-22T07:04:14;5.32;;;4.88;;
28028;SDS011;15345;59.364;18.016;2023-06-22T07:05:33;5.55;;;5.07;;
28028;SDS011;15345;59.364;18.016;2023-06-22T07:06:53;6.10;;;4.78;;
28028;SDS011;15345;59.364;18.016;2023-06-22T07:08:13;5.45;;;5.05;;
28028;SDS011;15345;59.364;18.016;2023-06-22T07:09:32;7.05;;;4.80;;
28028;SDS011;15345;59.364;18.016;2023-06-22T07:10:51;5.10;;;4.70;;
28028;SDS011;15345;59.364;18.016;2023-06-22T07:12:13;5.60;;;5.07;;
28028;SDS011;15345;59.364;18.016;2023-06-22T07:13:32;5.30;;;4.90;;
28028;SDS011;15345;59.364;18.016;2023-06-22T07:14:52;5.13;;;4.63;;
28028;SDS011;15345;59.364;18.016;2023-06-22T07:16:12;7.55;;;4.93;;
28028;SDS011;15345;59.364;18.016;2023-06-22T07:17:31;6.55;;;4.60;;
28028;SDS011;15345;59.364;18.016;2023-06-22T07:18:50;6.78;;;5.18;;
28028;SDS011;15345;59.364;18.016;2023-06-22T07:20:09;12.77;;;4.88;;
28028;SDS011;15345;59.364;18.016;2023-06-22T07:21:31;6.38;;;4.78;;
28028;SDS011;15345;59.364;18.016;2023-06-22T07:22:50;4.82;;;4.10;;
28028;SDS011;15345;59.364;18.016;2023-06-22T07:24:16;5.55;;;4.78;;
28028;SDS011;15345;59.364;18.016;2023-06-22T07:25:35;8.45;;;4.93;;
28028;SDS011;15345;59.364;18.016;2023-06-22T07:26:54;9.00;;;5.45;;
28028;SDS011;15345;59.364;18.016;2023-06-22T07:28:13;5.80;;;5.30;;
28028;SDS011;15345;59.364;18.016;2023-06-22T07:29:32;5.03;;;4.63;;
28028;SDS011;15345;59.364;18.016;2023-06-22T07:30:51;7.22;;;5.07;;
28028;SDS011;15345;59.364;18.016;2023-06-22T07:32:11;6.95;;;5.18;;
28028;SDS011;15345;59.364;18.016;2023-06-22T07:33:30;7.13;;;4.95;;
28028;SDS011;15345;59.364;18.016;2023-06-22T07:34:49;7.85;;;5.07;;
28028;SDS011;15345;59.364;18.016;2023-06-22T07:36:08;6.82;;;5.15;;
28028;SDS011;15345;59.364;18.016;2023-06-22T07:37:27;6.45;;;4.90;;
28028;SDS011;15345;59.364;18.016;2023-06-22T07:38:47;6.78;;;4.60;;
28028;SDS011;15345;59.364;18.016;2023-06-22T07:40:07;6.10;;;4.75;;
28028;SDS011;15345;59.364;18.016;2023-06-22T07:41:26;5.97;;;4.63;;
28028;SDS011;15345;59.364;18.016;2023-06-22T07:42:45;7.45;;;4.68;;
28028;SDS011;15345;59.364;18.016;2023-06-22T07:44:06;5.13;;;4.32;;
28028;SDS011;15345;59.364;18.016;2023-06-22T07:45:25;7.35;;;5.10;;
28028;SDS011;15345;59.364;18.016;2023-06-22T07:46:47;7.07;;;4.45;;
28028;SDS011;15345;59.364;18.016;2023-06-22T07:48:09;6.05;;;4.25;;
28028;SDS011;15345;59.364;18.016;2023-06-22T07:49:28;6.07;;;4.20;;
28028;SDS011;15345;59.364;18.016;2023-06-22T07:50:48;5.78;;;4.35;;
28028;SDS011;15345;59.364;18.016;2023-06-22T07:52:07;5.57;;;4.88;;
28028;SDS011;15345;59.364;18.016;2023-06-22T07:53:26;8.90;;;4.80;;
28028;SDS011;15345;59.364;18.016;2023-06-22T07:54:47;4.47;;;4.07;;
28028;SDS011;15345;59.364;18.016;2023-06-22T07:56:06;7.40;;;5.32;;
28028;SDS011;15345;59.364;18.016;2023-06-22T07:57:28;8.98;;;4.50;;
28028;SDS011;15345;59.364;18.016;2023-06-22T07:58:54;8.55;;;4.50;;
28028;SDS011;15345;59.364;18.016;2023-06-22T08:00:16;5.35;;;4.70;;
28028;SDS011;15345;59.364;18.016;2023-06-22T08:01:35;4.40;;;3.97;;